Archival Weather

Republic

Farmingdale, New York (KFRG)

Report from: Wednesday, February 14, 2024 6:53 PM EST
Current time: Monday, June 24, 2024 5:33 AM EDT

Current weather – Weather history – Daily summaries
Weather forecast

Temperature0.0°C (32.0°F)
Wind chill-5.3°C (22.5°F)
Dew point-12.2°C (10.0°F)
Winds 11 kts (5.7 m/s, 12.7 mph) West-Northwest (300°)
Wind gusts 20 kts (10.3 m/s, 23 mph)
Peak wind 26 kts (13.4 m/s, 29.9 mph) West-Northwest (300°) at 23:32
Visibility10 mi. (16.1 km)
Clouds Sky clear
Altimeter30.08 in.Hg (1019 mB)
Relative humidity39 %
Density altitude-1,975 ft. (-602 m)
Sea-level pressure101.9 kPa (1019 mB, 30.08 in.Hg)
Max temp last 6 hours1.7°C (35.1°F)
Min temp last 6 hours0.0°C (32.0°F)
Remarks Automated weather observing station without precipitation discriminator
Pressure rising more quickly
Flight conditions Visual Meteorological Conditions
Raw dataKFRG 142353Z 30011G20KT 10SM CLR 00/M12 A3008 RMK AO1 PK WND 30026/2332 SLP187 T00001122 10017 20000 53025
An error has occurred. This application may no longer respond until reloaded. Reload 🗙